Lake Creek, Texas
Current Conditions -  °F | °C
As of 12:55 PM on Thursday 23 Oct 2014 (Local Time) from KPRX Reporting Station
Overcast Overcast  
Wind Chill: 66°   Ceiling: 7500
Heat Index: 66°   Visibility: 10mi
Dew Point: 48°   Wind: 3mph
Humidity: 52%   Direction: 130°SE
Pressure: 30.18"   Gusts: NA
Location:  33.45°N, 95.59°W
Report Text: KPRX 231755Z 13003KT 10SM BKN075 OVC080 19/09 A3018 RMK AO1 10190 20140 57003
Loading
Personal Weather Stations






























Interactive Weather Map
Tropical Storm Tracking
New forecast layout! Learn more

10-Day Weather Forecast

Advertisements
Track Severe Weather on mobile